INFORMAÇÕES METEOROLÓGICAS
METAR FOR SOCA
ADDS - METARS form results

(0251 UTC 21 August 2019)
Data provider http://aviationweather.gov/metar/data/
 
METAR text: SOCA 210230Z AUTO 00000KT CAVOK 24/23 Q1015 NOSIG
Conditions at: SOCA (CAYENNE/ROCHAMBE, GY) observed 0230 UTC 21 August 2019
Temperature: 24.0°C (75°F)
Dewpoint: 23.0°C (73°F) [RH = 94%]
Pressure (altimeter): 29.97 inches Hg (1015.0 mb)
Winds: calm
Visibility: 6 or more miles (10+ km)
Ceiling: ceiling and visibility are OK
Clouds: unknown
Weather: no significant weather observed at this time

METAR text: SOCA 210200Z AUTO 00000KT 9999 FEW027 25/24 Q1015 NOSIG
Conditions at: SOCA (CAYENNE/ROCHAMBE, GY) observed 0200 UTC 21 August 2019
Temperature: 25.0°C (77°F)
Dewpoint: 24.0°C (75°F) [RH = 94%]
Pressure (altimeter): 29.97 inches Hg (1015.0 mb)
Winds: calm
Visibility: 6 or more miles (10+ km)
Ceiling: at least 12,000 feet AGL
Clouds: few clouds at 2700 feet AGL
Weather: no significant weather observed at this time

Forecast for: SOCA (CAYENNE/ROCHAMBE, GY)
Text: TAF SOCA 202200Z 2100/2124 VRB03KT CAVOK
Forecast period: 0000 to 1200 UTC 21 August 2019
Forecast type: FROM: standard forecast or significant change
Winds: variable direction winds at 3 MPH (3 knots; 1.5 m/s)
Visibility: 6 or more miles 10+ km)
Ceiling: unknown
Clouds: missing
Weather: NSW  (no significant weather)
Text: BECMG 2112/2114 10012KT
Forecast period: 1200 UTC 21 August 2019 to 0000 UTC 22 August 2019
Forecast type: BECOMING: Conditions expected to become as follows by 1400 UTC 21 August 2019
Winds: from the E (100 degrees) at 14 MPH (12 knots; 6.2 m/s)
Visibility: 6 or more miles 10+ km)
Ceiling: unknown
Clouds: missing
Weather: NSW  (no significant weather)
Text: TEMPO 2115/2120 FEW018TCU SCT030
Forecast period: 1500 to 2000 UTC 21 August 2019
Forecast type: TEMPORARY: The following changes expected for less than half the time period
Visibility: missing
Ceiling: at least 12,000 feet AGL
Clouds: few clouds at 1800 feet AGL
scattered clouds at 3000 feet AGL
Weather: no significant weather forecast for this period

 MAPA DO AEROPORTO

 INFORMAÇÕES DA PISTA
Pista 08 Tamanho da pista 10486 ft Largura da pista 148 ft
Elevação da pista 18 ft Ranhura da pista 0 ft Proa da pista 65
Pista 26 Tamanho da pista 10486 ft Largura da pista 148 ft
Elevação da pista 25 ft Ranhura da pista 0 ft Proa da pista 245

 FREQUÊNCIAS DO AEROPORTO
Tipo APP Nome APP Frequência 119.9 MHZ
Tipo ATIS Nome ATIS Frequência 132.2 MHZ
Tipo TWR Nome TWR Frequência 118.1 MHZ

 AUXÍLIOS DE NAVEGAÇÃO PRÓXIMOS AO AEROPORTO
Tipo VOR-DME Nome Cayenne Frequência 115950 KHZ
Tipo NDB Nome Cayenne Frequência 327 KHZ



Powered by Mercosul Lnhas Aereas